This is the latest recevied weather packets stored in our database for station/object K9RCP-24. If no packets are shown the sender has not sent any weather packets the latest 10 day(s).
| Time | Temp. | Humidity | Pressure | Rain* | Wind** | Luminosity | Snow |
|---|---|---|---|---|---|---|---|
| 1777625454 | 11.67° C | 77% | 1019.6 hPa | 0 mm | - | - | - |
| 1777625082 | 12.22° C | 77% | 1019.6 hPa | 0 mm | - | - | - |
| 1777623441 | 12.78° C | 74% | 1019.6 hPa | 0 mm | - | - | - |
| 1777622899 | 13.33° C | 73% | 1019.6 hPa | 0 mm | - | - | - |
| 1777622370 | 13.33° C | 72% | 1019.3 hPa | 0 mm | - | - | - |
| 1777621302 | 13.33° C | 71% | 1019.6 hPa | 0 mm | - | - | - |
| 1777620800 | 13.33° C | 71% | 1019.6 hPa | 0 mm | - | - | - |
| 1777620021 | 13.89° C | 69% | 1019.3 hPa | 0 mm | - | - | - |
| 1777619616 | 14.44° C | 66% | 1019.3 hPa | 0 mm | - | - | - |
| 1777617088 | 19.44° C | 45% | 1019 hPa | 0 mm | - | - | - |
| 1777616208 | 20° C | 44% | 1019 hPa | 0 mm | - | - | - |
| 1777615709 | 20° C | 44% | 1019 hPa | 0 mm | - | - | - |
| 1777615178 | 20.56° C | 44% | 1019 hPa | 0 mm | - | - | - |
| 1777615054 | 20.56° C | 44% | 1019 hPa | 0 mm | - | - | - |
| 1777614804 | 20.56° C | 44% | 1019 hPa | 0 mm | - | - | - |
| 1777614021 | 20.56° C | 43% | 1019 hPa | 0 mm | - | - | - |
| 1777613771 | 21.11° C | 44% | 1019 hPa | 0 mm | - | - | - |
| 1777612953 | 20.56° C | 46% | 1019 hPa | 0 mm | - | - | - |
| 1777612564 | 20.56° C | 47% | 1019 hPa | 0 mm | - | - | - |
| 1777612308 | 20° C | 47% | 1019 hPa | 0 mm | - | - | - |
| 1777612283 | 20° C | 48% | 1019 hPa | 0 mm | - | - | - |
| 1777611896 | 20.56° C | 47% | 1019 hPa | 0 mm | - | - | - |
| 1777611369 | 18.33° C | 55% | 1019 hPa | 0 mm | - | - | - |
| 1777610738 | 17.78° C | 57% | 1019 hPa | 0 mm | - | - | - |
| 1777610214 | 17.78° C | 59% | 1019 hPa | 0 mm | - | - | - |
* Rain latest hour (hover to see other rain measurements)
** Current wind speed in m/s (hover to see current wind gust speed)